sensor_id;sensor_type;location;lat;lon;timestamp;P1;durP1;ratioP1;P2;durP2;ratioP2
4831;SDS011;2430;51.322;7.864;2024-01-16T00:02:05;8.40;;;5.30;;
4831;SDS011;2430;51.322;7.864;2024-01-16T00:04:33;5.57;;;4.80;;
4831;SDS011;2430;51.322;7.864;2024-01-16T00:07:00;8.53;;;5.47;;
4831;SDS011;2430;51.322;7.864;2024-01-16T00:09:26;11.57;;;5.70;;
4831;SDS011;2430;51.322;7.864;2024-01-16T00:11:53;7.20;;;5.70;;
4831;SDS011;2430;51.322;7.864;2024-01-16T00:14:20;9.97;;;5.93;;
4831;SDS011;2430;51.322;7.864;2024-01-16T00:16:46;6.87;;;5.73;;
4831;SDS011;2430;51.322;7.864;2024-01-16T00:19:15;9.60;;;5.57;;
4831;SDS011;2430;51.322;7.864;2024-01-16T00:21:41;10.80;;;6.00;;
4831;SDS011;2430;51.322;7.864;2024-01-16T00:24:10;5.67;;;5.00;;
4831;SDS011;2430;51.322;7.864;2024-01-16T00:26:37;8.90;;;5.87;;
4831;SDS011;2430;51.322;7.864;2024-01-16T00:29:03;9.90;;;6.20;;
4831;SDS011;2430;51.322;7.864;2024-01-16T00:31:29;15.20;;;6.57;;
4831;SDS011;2430;51.322;7.864;2024-01-16T00:33:56;8.43;;;5.87;;
4831;SDS011;2430;51.322;7.864;2024-01-16T00:36:23;7.30;;;5.43;;
4831;SDS011;2430;51.322;7.864;2024-01-16T00:38:50;11.53;;;5.30;;
4831;SDS011;2430;51.322;7.864;2024-01-16T00:41:16;12.43;;;5.97;;
4831;SDS011;2430;51.322;7.864;2024-01-16T00:43:43;11.90;;;5.17;;
4831;SDS011;2430;51.322;7.864;2024-01-16T00:46:10;6.53;;;5.00;;
4831;SDS011;2430;51.322;7.864;2024-01-16T00:48:36;12.70;;;5.13;;
4831;SDS011;2430;51.322;7.864;2024-01-16T00:51:02;10.60;;;6.00;;
4831;SDS011;2430;51.322;7.864;2024-01-16T00:53:30;8.93;;;5.10;;
4831;SDS011;2430;51.322;7.864;2024-01-16T00:55:56;8.97;;;5.03;;
4831;SDS011;2430;51.322;7.864;2024-01-16T00:58:23;9.70;;;4.93;;
4831;SDS011;2430;51.322;7.864;2024-01-16T01:00:49;7.30;;;5.40;;
4831;SDS011;2430;51.322;7.864;2024-01-16T01:03:16;6.47;;;5.17;;
4831;SDS011;2430;51.322;7.864;2024-01-16T01:05:42;11.60;;;5.77;;
4831;SDS011;2430;51.322;7.864;2024-01-16T01:08:08;8.47;;;4.70;;
4831;SDS011;2430;51.322;7.864;2024-01-16T01:10:36;14.53;;;5.27;;
4831;SDS011;2430;51.322;7.864;2024-01-16T01:13:02;10.13;;;5.47;;
4831;SDS011;2430;51.322;7.864;2024-01-16T01:15:29;11.20;;;5.30;;
4831;SDS011;2430;51.322;7.864;2024-01-16T01:17:55;9.27;;;4.70;;
4831;SDS011;2430;51.322;7.864;2024-01-16T01:20:21;6.63;;;4.80;;
4831;SDS011;2430;51.322;7.864;2024-01-16T01:22:48;10.13;;;5.60;;
4831;SDS011;2430;51.322;7.864;2024-01-16T01:25:14;7.33;;;5.30;;
4831;SDS011;2430;51.322;7.864;2024-01-16T01:27:41;11.50;;;5.60;;
4831;SDS011;2430;51.322;7.864;2024-01-16T01:30:07;9.20;;;5.23;;
4831;SDS011;2430;51.322;7.864;2024-01-16T01:32:34;7.57;;;5.43;;
4831;SDS011;2430;51.322;7.864;2024-01-16T01:35:01;9.43;;;6.27;;
4831;SDS011;2430;51.322;7.864;2024-01-16T01:37:27;12.33;;;6.40;;
4831;SDS011;2430;51.322;7.864;2024-01-16T01:39:53;8.67;;;6.83;;
4831;SDS011;2430;51.322;7.864;2024-01-16T01:42:20;15.73;;;7.30;;
4831;SDS011;2430;51.322;7.864;2024-01-16T01:44:48;9.70;;;6.40;;
4831;SDS011;2430;51.322;7.864;2024-01-16T01:47:14;10.53;;;6.80;;
4831;SDS011;2430;51.322;7.864;2024-01-16T01:49:40;12.50;;;7.53;;
4831;SDS011;2430;51.322;7.864;2024-01-16T01:52:07;11.00;;;6.60;;
4831;SDS011;2430;51.322;7.864;2024-01-16T01:54:34;13.77;;;7.87;;
4831;SDS011;2430;51.322;7.864;2024-01-16T01:57:01;14.70;;;6.30;;
4831;SDS011;2430;51.322;7.864;2024-01-16T01:59:28;11.47;;;6.63;;
4831;SDS011;2430;51.322;7.864;2024-01-16T02:01:56;8.90;;;6.67;;
4831;SDS011;2430;51.322;7.864;2024-01-16T02:04:23;13.70;;;6.53;;
4831;SDS011;2430;51.322;7.864;2024-01-16T02:06:50;13.50;;;6.83;;
4831;SDS011;2430;51.322;7.864;2024-01-16T02:09:17;7.80;;;6.53;;
4831;SDS011;2430;51.322;7.864;2024-01-16T02:11:43;9.47;;;6.50;;
4831;SDS011;2430;51.322;7.864;2024-01-16T02:14:10;10.57;;;6.63;;
4831;SDS011;2430;51.322;7.864;2024-01-16T02:16:37;12.83;;;6.60;;
4831;SDS011;2430;51.322;7.864;2024-01-16T02:19:05;11.80;;;6.80;;
4831;SDS011;2430;51.322;7.864;2024-01-16T02:21:36;10.03;;;6.70;;
4831;SDS011;2430;51.322;7.864;2024-01-16T02:24:08;9.80;;;6.50;;
4831;SDS011;2430;51.322;7.864;2024-01-16T02:26:35;11.53;;;6.10;;
4831;SDS011;2430;51.322;7.864;2024-01-16T02:29:02;11.73;;;6.67;;
4831;SDS011;2430;51.322;7.864;2024-01-16T02:31:28;9.20;;;6.30;;
4831;SDS011;2430;51.322;7.864;2024-01-16T02:33:55;8.37;;;6.23;;
4831;SDS011;2430;51.322;7.864;2024-01-16T02:36:21;16.30;;;7.20;;
4831;SDS011;2430;51.322;7.864;2024-01-16T02:38:47;10.63;;;6.60;;
4831;SDS011;2430;51.322;7.864;2024-01-16T02:41:15;14.87;;;6.97;;
4831;SDS011;2430;51.322;7.864;2024-01-16T02:43:42;8.73;;;5.60;;
4831;SDS011;2430;51.322;7.864;2024-01-16T02:46:08;8.33;;;5.90;;
4831;SDS011;2430;51.322;7.864;2024-01-16T02:48:35;9.50;;;6.37;;
4831;SDS011;2430;51.322;7.864;2024-01-16T02:51:01;10.03;;;6.77;;
4831;SDS011;2430;51.322;7.864;2024-01-16T02:53:28;10.80;;;6.07;;
4831;SDS011;2430;51.322;7.864;2024-01-16T02:55:54;8.80;;;6.10;;
4831;SDS011;2430;51.322;7.864;2024-01-16T02:58:24;16.53;;;7.07;;
4831;SDS011;2430;51.322;7.864;2024-01-16T03:00:51;14.43;;;6.30;;
4831;SDS011;2430;51.322;7.864;2024-01-16T03:03:17;13.70;;;6.67;;
4831;SDS011;2430;51.322;7.864;2024-01-16T03:05:44;9.87;;;6.07;;
4831;SDS011;2430;51.322;7.864;2024-01-16T03:08:10;10.20;;;6.17;;
4831;SDS011;2430;51.322;7.864;2024-01-16T03:10:36;10.83;;;6.50;;
4831;SDS011;2430;51.322;7.864;2024-01-16T03:13:03;12.37;;;6.90;;
4831;SDS011;2430;51.322;7.864;2024-01-16T03:15:30;10.10;;;6.27;;
4831;SDS011;2430;51.322;7.864;2024-01-16T03:17:57;9.73;;;6.40;;
4831;SDS011;2430;51.322;7.864;2024-01-16T03:20:23;17.17;;;7.53;;
4831;SDS011;2430;51.322;7.864;2024-01-16T03:22:49;12.83;;;6.77;;
4831;SDS011;2430;51.322;7.864;2024-01-16T03:25:16;14.93;;;7.10;;
4831;SDS011;2430;51.322;7.864;2024-01-16T03:27:42;17.73;;;6.93;;
4831;SDS011;2430;51.322;7.864;2024-01-16T03:30:09;9.73;;;6.03;;
4831;SDS011;2430;51.322;7.864;2024-01-16T03:32:37;12.13;;;6.50;;
4831;SDS011;2430;51.322;7.864;2024-01-16T03:35:04;10.13;;;6.20;;
4831;SDS011;2430;51.322;7.864;2024-01-16T03:37:30;9.33;;;6.70;;
4831;SDS011;2430;51.322;7.864;2024-01-16T03:39:56;10.80;;;5.50;;
4831;SDS011;2430;51.322;7.864;2024-01-16T03:42:23;10.13;;;7.53;;
4831;SDS011;2430;51.322;7.864;2024-01-16T03:44:49;9.93;;;6.20;;
4831;SDS011;2430;51.322;7.864;2024-01-16T03:47:16;13.17;;;6.63;;
4831;SDS011;2430;51.322;7.864;2024-01-16T03:49:44;12.40;;;6.43;;
4831;SDS011;2430;51.322;7.864;2024-01-16T03:52:10;9.17;;;6.10;;
4831;SDS011;2430;51.322;7.864;2024-01-16T03:54:37;14.20;;;5.97;;
4831;SDS011;2430;51.322;7.864;2024-01-16T03:57:03;11.93;;;5.67;;
4831;SDS011;2430;51.322;7.864;2024-01-16T03:59:30;7.90;;;5.60;;
4831;SDS011;2430;51.322;7.864;2024-01-16T04:01:56;8.40;;;4.87;;
4831;SDS011;2430;51.322;7.864;2024-01-16T04:04:22;11.07;;;5.70;;
4831;SDS011;2430;51.322;7.864;2024-01-16T04:06:50;11.83;;;6.13;;
4831;SDS011;2430;51.322;7.864;2024-01-16T04:09:16;10.40;;;5.77;;
4831;SDS011;2430;51.322;7.864;2024-01-16T04:11:43;13.03;;;6.13;;
4831;SDS011;2430;51.322;7.864;2024-01-16T04:14:09;11.97;;;5.23;;
4831;SDS011;2430;51.322;7.864;2024-01-16T04:16:36;7.80;;;5.85;;
4831;SDS011;2430;51.322;7.864;2024-01-16T04:19:02;11.87;;;5.63;;
4831;SDS011;2430;51.322;7.864;2024-01-16T04:21:28;5.83;;;5.23;;
4831;SDS011;2430;51.322;7.864;2024-01-16T04:23:56;10.87;;;5.63;;
4831;SDS011;2430;51.322;7.864;2024-01-16T04:26:22;12.53;;;6.00;;
4831;SDS011;2430;51.322;7.864;2024-01-16T04:28:49;6.90;;;5.03;;
4831;SDS011;2430;51.322;7.864;2024-01-16T04:31:16;6.50;;;5.23;;
4831;SDS011;2430;51.322;7.864;2024-01-16T04:33:44;9.20;;;5.40;;
4831;SDS011;2430;51.322;7.864;2024-01-16T04:36:10;9.17;;;6.13;;
4831;SDS011;2430;51.322;7.864;2024-01-16T04:38:37;7.87;;;4.73;;
4831;SDS011;2430;51.322;7.864;2024-01-16T04:41:05;10.47;;;6.10;;
4831;SDS011;2430;51.322;7.864;2024-01-16T04:43:32;14.80;;;6.70;;
4831;SDS011;2430;51.322;7.864;2024-01-16T04:45:58;7.70;;;5.67;;
4831;SDS011;2430;51.322;7.864;2024-01-16T04:48:24;9.40;;;5.73;;
4831;SDS011;2430;51.322;7.864;2024-01-16T04:50:51;10.60;;;6.33;;
4831;SDS011;2430;51.322;7.864;2024-01-16T04:53:17;9.47;;;6.70;;
4831;SDS011;2430;51.322;7.864;2024-01-16T04:55:44;10.63;;;6.80;;
4831;SDS011;2430;51.322;7.864;2024-01-16T04:58:11;13.10;;;6.13;;
4831;SDS011;2430;51.322;7.864;2024-01-16T05:00:38;9.60;;;5.83;;
4831;SDS011;2430;51.322;7.864;2024-01-16T05:03:04;10.23;;;7.43;;
4831;SDS011;2430;51.322;7.864;2024-01-16T05:05:31;10.97;;;6.60;;
4831;SDS011;2430;51.322;7.864;2024-01-16T05:07:57;10.90;;;6.80;;
4831;SDS011;2430;51.322;7.864;2024-01-16T05:10:23;12.93;;;7.03;;
4831;SDS011;2430;51.322;7.864;2024-01-16T05:12:49;9.27;;;6.37;;
4831;SDS011;2430;51.322;7.864;2024-01-16T05:15:17;11.13;;;7.10;;
4831;SDS011;2430;51.322;7.864;2024-01-16T05:17:44;12.00;;;6.47;;
4831;SDS011;2430;51.322;7.864;2024-01-16T05:20:10;12.83;;;6.77;;
4831;SDS011;2430;51.322;7.864;2024-01-16T05:22:37;8.67;;;6.60;;
4831;SDS011;2430;51.322;7.864;2024-01-16T05:25:04;11.90;;;6.10;;
4831;SDS011;2430;51.322;7.864;2024-01-16T05:27:32;13.50;;;7.00;;
4831;SDS011;2430;51.322;7.864;2024-01-16T05:29:58;11.73;;;7.00;;
4831;SDS011;2430;51.322;7.864;2024-01-16T05:32:26;11.40;;;6.33;;
4831;SDS011;2430;51.322;7.864;2024-01-16T05:34:53;7.50;;;6.50;;
4831;SDS011;2430;51.322;7.864;2024-01-16T05:37:19;15.03;;;5.53;;
4831;SDS011;2430;51.322;7.864;2024-01-16T05:39:45;9.93;;;6.00;;
4831;SDS011;2430;51.322;7.864;2024-01-16T05:42:12;6.30;;;5.30;;
4831;SDS011;2430;51.322;7.864;2024-01-16T05:44:38;7.13;;;5.27;;
4831;SDS011;2430;51.322;7.864;2024-01-16T05:47:05;9.33;;;4.80;;
4831;SDS011;2430;51.322;7.864;2024-01-16T05:49:32;7.97;;;4.80;;
4831;SDS011;2430;51.322;7.864;2024-01-16T05:51:59;6.90;;;5.13;;
4831;SDS011;2430;51.322;7.864;2024-01-16T05:54:25;9.67;;;6.10;;
4831;SDS011;2430;51.322;7.864;2024-01-16T05:56:51;8.70;;;5.80;;
4831;SDS011;2430;51.322;7.864;2024-01-16T05:59:18;6.23;;;5.57;;
4831;SDS011;2430;51.322;7.864;2024-01-16T06:01:44;11.43;;;5.53;;
4831;SDS011;2430;51.322;7.864;2024-01-16T06:04:11;7.63;;;5.87;;
4831;SDS011;2430;51.322;7.864;2024-01-16T06:06:38;6.93;;;6.10;;
4831;SDS011;2430;51.322;7.864;2024-01-16T06:09:09;13.73;;;5.43;;
4831;SDS011;2430;51.322;7.864;2024-01-16T06:11:38;11.67;;;5.90;;
4831;SDS011;2430;51.322;7.864;2024-01-16T06:14:05;6.30;;;5.70;;
4831;SDS011;2430;51.322;7.864;2024-01-16T06:16:32;6.63;;;5.17;;
4831;SDS011;2430;51.322;7.864;2024-01-16T06:18:58;6.77;;;5.50;;
4831;SDS011;2430;51.322;7.864;2024-01-16T06:21:24;8.47;;;5.77;;
4831;SDS011;2430;51.322;7.864;2024-01-16T06:23:53;9.17;;;5.80;;
4831;SDS011;2430;51.322;7.864;2024-01-16T06:26:19;10.07;;;6.33;;
4831;SDS011;2430;51.322;7.864;2024-01-16T06:28:46;9.87;;;5.50;;
4831;SDS011;2430;51.322;7.864;2024-01-16T06:31:13;9.80;;;6.50;;
4831;SDS011;2430;51.322;7.864;2024-01-16T06:33:39;12.23;;;5.43;;
4831;SDS011;2430;51.322;7.864;2024-01-16T06:36:06;9.37;;;5.00;;
4831;SDS011;2430;51.322;7.864;2024-01-16T06:38:32;13.63;;;5.20;;
4831;SDS011;2430;51.322;7.864;2024-01-16T06:41:00;10.10;;;4.80;;
4831;SDS011;2430;51.322;7.864;2024-01-16T06:43:27;8.47;;;5.73;;
4831;SDS011;2430;51.322;7.864;2024-01-16T06:45:53;10.47;;;6.10;;
4831;SDS011;2430;51.322;7.864;2024-01-16T06:48:19;11.43;;;5.50;;
4831;SDS011;2430;51.322;7.864;2024-01-16T06:50:46;6.83;;;6.13;;
4831;SDS011;2430;51.322;7.864;2024-01-16T06:53:12;7.33;;;5.90;;
4831;SDS011;2430;51.322;7.864;2024-01-16T06:55:39;10.10;;;5.20;;
4831;SDS011;2430;51.322;7.864;2024-01-16T06:58:07;7.77;;;5.40;;
4831;SDS011;2430;51.322;7.864;2024-01-16T07:00:34;8.00;;;5.23;;
4831;SDS011;2430;51.322;7.864;2024-01-16T07:03:01;8.07;;;5.70;;
4831;SDS011;2430;51.322;7.864;2024-01-16T07:05:27;9.87;;;5.67;;
4831;SDS011;2430;51.322;7.864;2024-01-16T07:07:54;8.37;;;6.13;;
4831;SDS011;2430;51.322;7.864;2024-01-16T07:10:20;7.60;;;5.43;;
4831;SDS011;2430;51.322;7.864;2024-01-16T07:12:48;8.10;;;5.43;;
4831;SDS011;2430;51.322;7.864;2024-01-16T07:15:17;5.97;;;4.97;;
4831;SDS011;2430;51.322;7.864;2024-01-16T07:17:44;9.20;;;4.87;;
4831;SDS011;2430;51.322;7.864;2024-01-16T07:20:10;5.80;;;4.57;;
4831;SDS011;2430;51.322;7.864;2024-01-16T07:22:37;7.97;;;5.00;;
4831;SDS011;2430;51.322;7.864;2024-01-16T07:25:04;6.43;;;4.87;;
4831;SDS011;2430;51.322;7.864;2024-01-16T07:27:31;5.13;;;4.63;;
4831;SDS011;2430;51.322;7.864;2024-01-16T07:29:57;11.13;;;5.20;;
4831;SDS011;2430;51.322;7.864;2024-01-16T07:32:25;5.40;;;4.90;;
4831;SDS011;2430;51.322;7.864;2024-01-16T07:34:51;6.13;;;5.17;;
4831;SDS011;2430;51.322;7.864;2024-01-16T07:37:17;6.93;;;5.40;;
4831;SDS011;2430;51.322;7.864;2024-01-16T07:39:44;6.07;;;4.70;;
4831;SDS011;2430;51.322;7.864;2024-01-16T07:42:10;10.30;;;5.63;;
4831;SDS011;2430;51.322;7.864;2024-01-16T07:44:37;7.00;;;4.90;;
4831;SDS011;2430;51.322;7.864;2024-01-16T07:47:03;6.23;;;4.50;;
4831;SDS011;2430;51.322;7.864;2024-01-16T07:49:31;8.37;;;4.77;;
4831;SDS011;2430;51.322;7.864;2024-01-16T07:51:57;10.93;;;5.30;;
4831;SDS011;2430;51.322;7.864;2024-01-16T07:54:23;13.43;;;5.10;;
4831;SDS011;2430;51.322;7.864;2024-01-16T07:56:51;6.20;;;4.90;;
4831;SDS011;2430;51.322;7.864;2024-01-16T07:59:17;7.77;;;6.13;;
4831;SDS011;2430;51.322;7.864;2024-01-16T08:01:43;15.43;;;6.80;;
4831;SDS011;2430;51.322;7.864;2024-01-16T08:04:11;9.80;;;5.20;;
4831;SDS011;2430;51.322;7.864;2024-01-16T08:06:38;8.13;;;5.40;;
4831;SDS011;2430;51.322;7.864;2024-01-16T08:09:05;9.57;;;5.40;;
4831;SDS011;2430;51.322;7.864;2024-01-16T08:11:31;9.57;;;5.10;;
4831;SDS011;2430;51.322;7.864;2024-01-16T08:14:00;8.97;;;5.47;;
4831;SDS011;2430;51.322;7.864;2024-01-16T08:16:27;8.90;;;5.67;;
4831;SDS011;2430;51.322;7.864;2024-01-16T08:18:53;9.10;;;5.37;;
4831;SDS011;2430;51.322;7.864;2024-01-16T08:21:19;7.53;;;4.77;;
4831;SDS011;2430;51.322;7.864;2024-01-16T08:23:47;9.03;;;5.23;;
4831;SDS011;2430;51.322;7.864;2024-01-16T08:26:14;8.37;;;4.70;;
4831;SDS011;2430;51.322;7.864;2024-01-16T08:28:40;6.40;;;4.77;;
4831;SDS011;2430;51.322;7.864;2024-01-16T08:31:06;10.83;;;4.17;;
4831;SDS011;2430;51.322;7.864;2024-01-16T08:33:33;10.83;;;4.67;;
4831;SDS011;2430;51.322;7.864;2024-01-16T08:35:59;7.60;;;4.63;;
4831;SDS011;2430;51.322;7.864;2024-01-16T08:38:25;9.63;;;4.63;;
4831;SDS011;2430;51.322;7.864;2024-01-16T08:40:53;20.03;;;5.67;;
4831;SDS011;2430;51.322;7.864;2024-01-16T08:43:19;7.77;;;4.53;;
4831;SDS011;2430;51.322;7.864;2024-01-16T08:45:46;10.17;;;5.10;;
4831;SDS011;2430;51.322;7.864;2024-01-16T08:48:13;9.80;;;3.97;;
4831;SDS011;2430;51.322;7.864;2024-01-16T08:50:40;8.13;;;4.20;;
4831;SDS011;2430;51.322;7.864;2024-01-16T08:53:06;8.77;;;4.20;;
4831;SDS011;2430;51.322;7.864;2024-01-16T08:55:33;10.63;;;4.60;;
4831;SDS011;2430;51.322;7.864;2024-01-16T08:58:01;8.77;;;4.20;;
4831;SDS011;2430;51.322;7.864;2024-01-16T09:00:27;13.07;;;4.30;;
4831;SDS011;2430;51.322;7.864;2024-01-16T09:02:54;10.33;;;4.17;;
4831;SDS011;2430;51.322;7.864;2024-01-16T09:05:20;6.97;;;3.90;;
4831;SDS011;2430;51.322;7.864;2024-01-16T09:07:50;8.63;;;4.10;;
4831;SDS011;2430;51.322;7.864;2024-01-16T09:10:17;7.17;;;4.23;;
4831;SDS011;2430;51.322;7.864;2024-01-16T09:12:43;8.67;;;3.57;;
4831;SDS011;2430;51.322;7.864;2024-01-16T09:15:11;5.70;;;4.23;;
4831;SDS011;2430;51.322;7.864;2024-01-16T09:17:38;6.60;;;3.40;;
4831;SDS011;2430;51.322;7.864;2024-01-16T09:20:05;9.20;;;3.90;;
4831;SDS011;2430;51.322;7.864;2024-01-16T09:22:32;15.13;;;3.40;;
4831;SDS011;2430;51.322;7.864;2024-01-16T09:24:58;5.40;;;3.37;;
4831;SDS011;2430;51.322;7.864;2024-01-16T09:27:25;11.63;;;3.30;;
4831;SDS011;2430;51.322;7.864;2024-01-16T09:29:51;7.87;;;3.23;;
4831;SDS011;2430;51.322;7.864;2024-01-16T09:32:19;8.23;;;3.90;;
4831;SDS011;2430;51.322;7.864;2024-01-16T09:34:45;11.30;;;3.43;;
4831;SDS011;2430;51.322;7.864;2024-01-16T09:37:11;7.00;;;3.30;;
4831;SDS011;2430;51.322;7.864;2024-01-16T09:39:39;9.70;;;3.60;;
4831;SDS011;2430;51.322;7.864;2024-01-16T09:42:06;9.90;;;3.80;;
4831;SDS011;2430;51.322;7.864;2024-01-16T09:44:32;11.17;;;3.60;;
4831;SDS011;2430;51.322;7.864;2024-01-16T09:46:59;7.10;;;3.00;;
4831;SDS011;2430;51.322;7.864;2024-01-16T09:49:29;6.70;;;2.80;;
4831;SDS011;2430;51.322;7.864;2024-01-16T09:51:56;5.13;;;2.93;;
4831;SDS011;2430;51.322;7.864;2024-01-16T09:54:24;7.23;;;2.93;;
4831;SDS011;2430;51.322;7.864;2024-01-16T09:56:52;4.40;;;2.87;;
4831;SDS011;2430;51.322;7.864;2024-01-16T09:59:19;6.40;;;2.87;;
4831;SDS011;2430;51.322;7.864;2024-01-16T10:01:46;3.90;;;2.30;;
4831;SDS011;2430;51.322;7.864;2024-01-16T10:04:14;13.10;;;6.50;;
4831;SDS011;2430;51.322;7.864;2024-01-16T10:06:42;7.13;;;4.20;;
4831;SDS011;2430;51.322;7.864;2024-01-16T10:09:11;9.00;;;2.60;;
4831;SDS011;2430;51.322;7.864;2024-01-16T10:11:38;11.00;;;2.83;;
4831;SDS011;2430;51.322;7.864;2024-01-16T10:14:05;7.30;;;2.30;;
4831;SDS011;2430;51.322;7.864;2024-01-16T10:19:16;9.83;;;3.97;;
4831;SDS011;2430;51.322;7.864;2024-01-16T10:21:44;4.43;;;2.53;;
4831;SDS011;2430;51.322;7.864;2024-01-16T10:24:10;5.87;;;2.63;;
4831;SDS011;2430;51.322;7.864;2024-01-16T10:26:37;5.40;;;3.10;;
4831;SDS011;2430;51.322;7.864;2024-01-16T10:29:03;6.40;;;2.23;;
4831;SDS011;2430;51.322;7.864;2024-01-16T10:31:30;7.90;;;2.87;;
4831;SDS011;2430;51.322;7.864;2024-01-16T10:33:56;8.90;;;2.50;;
4831;SDS011;2430;51.322;7.864;2024-01-16T10:36:23;8.50;;;2.73;;
4831;SDS011;2430;51.322;7.864;2024-01-16T10:38:52;5.17;;;2.60;;
4831;SDS011;2430;51.322;7.864;2024-01-16T10:41:28;6.00;;;3.10;;
4831;SDS011;2430;51.322;7.864;2024-01-16T10:44:03;4.77;;;2.47;;
4831;SDS011;2430;51.322;7.864;2024-01-16T10:46:29;5.33;;;2.60;;
4831;SDS011;2430;51.322;7.864;2024-01-16T10:48:59;6.20;;;2.50;;
4831;SDS011;2430;51.322;7.864;2024-01-16T10:51:26;3.90;;;2.30;;
4831;SDS011;2430;51.322;7.864;2024-01-16T10:53:55;4.90;;;2.40;;
4831;SDS011;2430;51.322;7.864;2024-01-16T10:56:24;8.00;;;2.50;;
4831;SDS011;2430;51.322;7.864;2024-01-16T10:58:53;6.07;;;2.70;;
4831;SDS011;2430;51.322;7.864;2024-01-16T11:01:21;6.07;;;2.40;;
4831;SDS011;2430;51.322;7.864;2024-01-16T11:03:48;4.70;;;2.50;;
4831;SDS011;2430;51.322;7.864;2024-01-16T11:06:15;10.83;;;2.43;;
4831;SDS011;2430;51.322;7.864;2024-01-16T11:08:42;6.10;;;2.67;;
4831;SDS011;2430;51.322;7.864;2024-01-16T11:11:12;9.23;;;2.70;;
4831;SDS011;2430;51.322;7.864;2024-01-16T11:13:39;4.97;;;2.13;;
4831;SDS011;2430;51.322;7.864;2024-01-16T11:16:06;8.90;;;2.40;;
4831;SDS011;2430;51.322;7.864;2024-01-16T11:18:34;6.57;;;2.90;;
4831;SDS011;2430;51.322;7.864;2024-01-16T11:21:01;3.27;;;2.30;;
4831;SDS011;2430;51.322;7.864;2024-01-16T11:23:27;8.23;;;2.10;;
4831;SDS011;2430;51.322;7.864;2024-01-16T11:25:54;9.10;;;2.47;;
4831;SDS011;2430;51.322;7.864;2024-01-16T11:28:21;3.10;;;2.40;;
4831;SDS011;2430;51.322;7.864;2024-01-16T11:30:52;7.43;;;2.60;;
4831;SDS011;2430;51.322;7.864;2024-01-16T11:36:04;9.13;;;4.37;;
4831;SDS011;2430;51.322;7.864;2024-01-16T11:38:30;6.33;;;2.50;;
4831;SDS011;2430;51.322;7.864;2024-01-16T11:40:58;5.03;;;2.10;;
4831;SDS011;2430;51.322;7.864;2024-01-16T11:43:35;6.00;;;2.50;;
4831;SDS011;2430;51.322;7.864;2024-01-16T11:46:02;7.73;;;2.63;;
4831;SDS011;2430;51.322;7.864;2024-01-16T11:48:28;8.53;;;2.70;;
4831;SDS011;2430;51.322;7.864;2024-01-16T11:50:55;10.47;;;3.27;;
4831;SDS011;2430;51.322;7.864;2024-01-16T11:53:31;10.63;;;3.97;;
4831;SDS011;2430;51.322;7.864;2024-01-16T11:56:00;7.90;;;2.97;;
4831;SDS011;2430;51.322;7.864;2024-01-16T11:58:39;8.20;;;3.30;;
4831;SDS011;2430;51.322;7.864;2024-01-16T12:01:07;8.90;;;3.13;;
4831;SDS011;2430;51.322;7.864;2024-01-16T12:03:37;5.43;;;2.77;;
4831;SDS011;2430;51.322;7.864;2024-01-16T12:06:03;7.20;;;3.00;;
4831;SDS011;2430;51.322;7.864;2024-01-16T12:08:31;10.67;;;3.63;;
4831;SDS011;2430;51.322;7.864;2024-01-16T12:10:58;9.77;;;3.30;;
4831;SDS011;2430;51.322;7.864;2024-01-16T12:13:25;10.80;;;3.40;;
4831;SDS011;2430;51.322;7.864;2024-01-16T12:16:00;5.60;;;3.40;;
4831;SDS011;2430;51.322;7.864;2024-01-16T12:18:26;7.07;;;3.13;;
4831;SDS011;2430;51.322;7.864;2024-01-16T12:20:53;5.43;;;2.67;;
4831;SDS011;2430;51.322;7.864;2024-01-16T12:23:20;8.57;;;3.57;;
4831;SDS011;2430;51.322;7.864;2024-01-16T12:25:51;10.97;;;3.37;;
4831;SDS011;2430;51.322;7.864;2024-01-16T12:28:19;7.03;;;2.90;;
4831;SDS011;2430;51.322;7.864;2024-01-16T12:30:48;3.77;;;2.60;;
4831;SDS011;2430;51.322;7.864;2024-01-16T12:33:16;7.50;;;3.50;;
4831;SDS011;2430;51.322;7.864;2024-01-16T12:35:43;7.27;;;3.10;;
4831;SDS011;2430;51.322;7.864;2024-01-16T12:38:11;6.17;;;2.13;;
4831;SDS011;2430;51.322;7.864;2024-01-16T12:40:39;8.07;;;2.87;;
4831;SDS011;2430;51.322;7.864;2024-01-16T12:43:05;7.87;;;3.47;;
4831;SDS011;2430;51.322;7.864;2024-01-16T12:45:32;5.17;;;2.20;;
4831;SDS011;2430;51.322;7.864;2024-01-16T12:47:59;7.60;;;2.70;;
4831;SDS011;2430;51.322;7.864;2024-01-16T12:50:27;5.47;;;2.90;;
4831;SDS011;2430;51.322;7.864;2024-01-16T12:53:02;8.17;;;2.70;;
4831;SDS011;2430;51.322;7.864;2024-01-16T12:55:28;11.87;;;3.20;;
4831;SDS011;2430;51.322;7.864;2024-01-16T13:00:36;4.97;;;2.47;;
4831;SDS011;2430;51.322;7.864;2024-01-16T13:03:03;5.07;;;2.97;;
4831;SDS011;2430;51.322;7.864;2024-01-16T13:05:31;8.90;;;2.80;;
4831;SDS011;2430;51.322;7.864;2024-01-16T13:08:01;5.20;;;2.93;;
4831;SDS011;2430;51.322;7.864;2024-01-16T13:10:28;4.23;;;2.73;;
4831;SDS011;2430;51.322;7.864;2024-01-16T13:15:36;7.30;;;2.47;;
4831;SDS011;2430;51.322;7.864;2024-01-16T13:18:03;9.33;;;3.13;;
4831;SDS011;2430;51.322;7.864;2024-01-16T13:20:29;7.37;;;3.03;;
4831;SDS011;2430;51.322;7.864;2024-01-16T13:22:57;6.13;;;2.70;;
4831;SDS011;2430;51.322;7.864;2024-01-16T13:25:23;11.00;;;3.40;;
4831;SDS011;2430;51.322;7.864;2024-01-16T13:27:51;6.73;;;2.63;;
4831;SDS011;2430;51.322;7.864;2024-01-16T13:30:18;12.20;;;3.33;;
4831;SDS011;2430;51.322;7.864;2024-01-16T13:32:44;5.43;;;2.80;;
4831;SDS011;2430;51.322;7.864;2024-01-16T13:35:11;11.37;;;3.40;;
4831;SDS011;2430;51.322;7.864;2024-01-16T13:37:37;8.60;;;2.70;;
4831;SDS011;2430;51.322;7.864;2024-01-16T13:40:04;7.33;;;3.07;;
4831;SDS011;2430;51.322;7.864;2024-01-16T13:42:33;6.77;;;2.57;;
4831;SDS011;2430;51.322;7.864;2024-01-16T13:45:03;6.87;;;3.13;;
4831;SDS011;2430;51.322;7.864;2024-01-16T13:47:30;4.43;;;2.77;;
4831;SDS011;2430;51.322;7.864;2024-01-16T13:49:56;6.63;;;2.93;;
4831;SDS011;2430;51.322;7.864;2024-01-16T13:52:22;7.20;;;2.97;;
4831;SDS011;2430;51.322;7.864;2024-01-16T13:54:48;5.83;;;2.80;;
4831;SDS011;2430;51.322;7.864;2024-01-16T13:57:16;5.70;;;2.57;;
4831;SDS011;2430;51.322;7.864;2024-01-16T13:59:42;7.13;;;3.43;;
4831;SDS011;2430;51.322;7.864;2024-01-16T14:02:09;9.80;;;3.33;;
4831;SDS011;2430;51.322;7.864;2024-01-16T14:04:35;12.70;;;3.60;;
4831;SDS011;2430;51.322;7.864;2024-01-16T14:07:02;5.70;;;2.80;;
4831;SDS011;2430;51.322;7.864;2024-01-16T14:09:32;9.57;;;3.60;;
4831;SDS011;2430;51.322;7.864;2024-01-16T14:11:58;4.93;;;3.07;;
4831;SDS011;2430;51.322;7.864;2024-01-16T14:14:26;5.90;;;3.20;;
4831;SDS011;2430;51.322;7.864;2024-01-16T14:16:52;6.47;;;3.40;;
4831;SDS011;2430;51.322;7.864;2024-01-16T14:19:19;9.83;;;3.67;;
4831;SDS011;2430;51.322;7.864;2024-01-16T14:21:45;16.23;;;4.53;;
4831;SDS011;2430;51.322;7.864;2024-01-16T14:24:12;5.57;;;3.20;;
4831;SDS011;2430;51.322;7.864;2024-01-16T14:26:41;7.27;;;5.30;;
4831;SDS011;2430;51.322;7.864;2024-01-16T14:29:09;8.17;;;5.10;;
4831;SDS011;2430;51.322;7.864;2024-01-16T14:31:37;11.17;;;5.30;;
4831;SDS011;2430;51.322;7.864;2024-01-16T14:34:03;4.90;;;2.80;;
4831;SDS011;2430;51.322;7.864;2024-01-16T14:36:29;6.73;;;3.33;;
4831;SDS011;2430;51.322;7.864;2024-01-16T14:38:56;10.97;;;4.07;;
4831;SDS011;2430;51.322;7.864;2024-01-16T14:41:22;6.80;;;3.60;;
4831;SDS011;2430;51.322;7.864;2024-01-16T14:43:48;7.67;;;3.43;;
4831;SDS011;2430;51.322;7.864;2024-01-16T14:46:18;6.13;;;3.10;;
4831;SDS011;2430;51.322;7.864;2024-01-16T14:48:45;6.70;;;4.13;;
4831;SDS011;2430;51.322;7.864;2024-01-16T14:51:12;5.00;;;2.93;;
4831;SDS011;2430;51.322;7.864;2024-01-16T14:53:38;8.93;;;3.50;;
4831;SDS011;2430;51.322;7.864;2024-01-16T14:56:04;7.27;;;3.00;;
4831;SDS011;2430;51.322;7.864;2024-01-16T14:58:31;5.57;;;2.90;;
4831;SDS011;2430;51.322;7.864;2024-01-16T15:00:57;11.30;;;3.83;;
4831;SDS011;2430;51.322;7.864;2024-01-16T15:03:24;4.70;;;2.83;;
4831;SDS011;2430;51.322;7.864;2024-01-16T15:05:51;7.70;;;3.00;;
4831;SDS011;2430;51.322;7.864;2024-01-16T15:08:20;6.27;;;2.83;;
4831;SDS011;2430;51.322;7.864;2024-01-16T15:10:46;9.83;;;3.33;;
4831;SDS011;2430;51.322;7.864;2024-01-16T15:13:13;7.63;;;3.70;;
4831;SDS011;2430;51.322;7.864;2024-01-16T15:15:39;7.63;;;3.40;;
4831;SDS011;2430;51.322;7.864;2024-01-16T15:18:05;13.70;;;3.60;;
4831;SDS011;2430;51.322;7.864;2024-01-16T15:20:32;6.00;;;3.17;;